createdAt,value
2019-05-19T00:01:37.344Z,63.85
2019-05-19T00:04:06.443Z,63.42
2019-05-19T00:06:35.370Z,66.40
2019-05-19T00:09:05.352Z,68.30
2019-05-19T00:11:34.218Z,67.00
2019-05-19T00:14:03.439Z,64.40
2019-05-19T00:16:32.200Z,64.37
2019-05-19T00:19:01.115Z,64.62
2019-05-19T00:21:30.389Z,64.27
2019-05-19T00:23:59.980Z,64.10
2019-05-19T00:26:29.303Z,63.52
2019-05-19T00:28:58.182Z,64.20
2019-05-19T00:31:27.328Z,65.78
2019-05-19T00:33:56.492Z,68.12
2019-05-19T00:36:31.643Z,67.80
2019-05-19T00:39:00.872Z,63.78
2019-05-19T00:41:30.057Z,64.35
2019-05-19T00:43:58.829Z,78.55
2019-05-19T00:46:28.076Z,63.17
2019-05-19T00:48:57.345Z,65.62
2019-05-19T00:51:26.446Z,62.58
2019-05-19T00:53:55.923Z,64.65
2019-05-19T00:56:26.079Z,65.35
2019-05-19T00:58:56.636Z,66.55
2019-05-19T01:01:25.812Z,64.75
2019-05-19T01:03:55.106Z,65.75
2019-05-19T01:06:23.848Z,68.22
2019-05-19T01:08:54.291Z,65.00
2019-05-19T01:11:23.177Z,66.55
2019-05-19T01:13:52.106Z,65.97
2019-05-19T01:16:21.278Z,66.55
2019-05-19T01:18:50.094Z,69.03
2019-05-19T01:21:19.272Z,67.70
2019-05-19T01:23:48.395Z,67.90
2019-05-19T01:26:17.629Z,65.92
2019-05-19T01:28:46.478Z,65.92
2019-05-19T01:31:15.790Z,66.77
2019-05-19T01:33:44.882Z,64.97
2019-05-19T01:36:14.102Z,70.55
2019-05-19T01:38:43.296Z,70.30
2019-05-19T01:41:12.175Z,67.65
2019-05-19T01:43:41.029Z,69.42
2019-05-19T01:46:10.247Z,68.78
2019-05-19T01:48:39.163Z,69.90
2019-05-19T01:51:07.938Z,68.37
2019-05-19T01:53:37.157Z,69.42
2019-05-19T01:56:07.080Z,69.07
2019-05-19T01:58:36.269Z,72.12
2019-05-19T02:01:05.580Z,71.28
2019-05-19T02:03:34.875Z,68.78
2019-05-19T02:06:04.587Z,69.75
2019-05-19T02:08:33.987Z,71.05
2019-05-19T02:11:03.094Z,69.77
2019-05-19T02:13:31.852Z,73.78
2019-05-19T02:16:01.148Z,66.17
2019-05-19T02:18:30.376Z,71.60
2019-05-19T02:20:59.653Z,71.77
2019-05-19T02:23:28.880Z,71.60
2019-05-19T02:25:57.980Z,70.57
2019-05-19T02:28:26.783Z,69.10
2019-05-19T02:30:56.960Z,70.25
2019-05-19T02:33:26.159Z,70.42
2019-05-19T02:35:55.395Z,74.45
2019-05-19T02:38:24.603Z,71.70
2019-05-19T02:40:55.886Z,72.55
2019-05-19T02:43:26.327Z,69.42
2019-05-19T02:45:58.439Z,71.60
2019-05-19T02:48:28.975Z,71.97
2019-05-19T02:51:00.869Z,71.25
2019-05-19T02:53:32.333Z,68.97
2019-05-19T02:56:02.280Z,74.32
2019-05-19T02:58:32.930Z,71.80
2019-05-19T03:01:02.241Z,71.72
2019-05-19T03:03:31.433Z,74.82
2019-05-19T03:06:00.733Z,73.22
2019-05-19T03:08:29.877Z,73.15
2019-05-19T03:10:59.038Z,72.27
2019-05-19T03:13:30.204Z,70.20
2019-05-19T03:15:59.286Z,72.45
2019-05-19T03:18:28.552Z,70.80
2019-05-19T03:21:10.580Z,72.22
2019-05-19T03:23:27.846Z,73.37
2019-05-19T03:25:57.097Z,71.82
2019-05-19T03:28:27.673Z,69.65
2019-05-19T03:30:58.369Z,72.12
2019-05-19T03:33:31.641Z,71.57
2019-05-19T03:38:29.011Z,71.95
2019-05-19T03:40:58.310Z,73.37
2019-05-19T03:43:27.536Z,75.85
2019-05-19T03:45:56.338Z,74.82
2019-05-19T03:48:25.630Z,77.42
2019-05-19T03:50:54.730Z,72.55
2019-05-19T03:53:23.930Z,74.05
2019-05-19T03:55:53.226Z,72.70
2019-05-19T03:58:22.504Z,75.10
2019-05-19T04:00:51.728Z,75.80
2019-05-19T04:03:20.470Z,74.97
2019-05-19T04:05:49.722Z,75.40
2019-05-19T04:08:18.919Z,73.17
2019-05-19T04:10:47.785Z,75.42
2019-05-19T04:13:17.012Z,74.82
2019-05-19T04:15:46.209Z,72.70
2019-05-19T04:18:15.619Z,73.17
2019-05-19T04:20:44.992Z,75.85
2019-05-19T04:23:14.117Z,72.85
2019-05-19T04:25:43.331Z,76.20
2019-05-19T04:28:12.637Z,75.05
2019-05-19T04:30:41.418Z,73.10
2019-05-19T04:33:10.212Z,73.67
2019-05-19T04:35:38.993Z,74.05
2019-05-19T04:38:08.267Z,71.92
2019-05-19T04:40:37.556Z,72.60
2019-05-19T04:43:06.566Z,72.65
2019-05-19T04:45:35.798Z,71.97
2019-05-19T04:48:09.182Z,71.67
2019-05-19T04:50:35.939Z,72.92
2019-05-19T04:53:05.137Z,72.95
2019-05-19T04:55:34.334Z,69.65
2019-05-19T04:58:03.537Z,70.55
2019-05-19T05:00:32.629Z,70.25
2019-05-19T05:03:01.827Z,73.95
2019-05-19T05:05:30.927Z,74.07
2019-05-19T05:08:01.351Z,75.37
2019-05-19T08:17:31.850Z,71.10
2019-05-19T08:20:00.606Z,70.05
2019-05-19T08:22:29.482Z,67.85
2019-05-19T08:24:58.245Z,65.90
2019-05-19T08:27:27.008Z,69.17
2019-05-19T08:29:57.637Z,69.25
2019-05-19T08:32:26.447Z,67.35
2019-05-19T08:34:55.267Z,66.50
2019-05-19T08:37:24.091Z,67.35
2019-05-19T08:39:52.920Z,66.80
2019-05-19T08:42:21.701Z,64.65
2019-05-19T08:44:50.515Z,64.70
2019-05-19T08:47:19.286Z,66.00
2019-05-19T08:49:48.085Z,69.62
2019-05-19T08:52:16.952Z,66.62
2019-05-19T08:54:45.791Z,66.17
2019-05-19T08:57:14.704Z,67.30
2019-05-19T08:59:43.498Z,66.82
2019-05-19T09:02:12.298Z,65.62
2019-05-19T09:04:41.080Z,69.05
2019-05-19T09:07:09.879Z,68.10
2019-05-19T09:09:38.647Z,63.78
2019-05-19T09:12:07.483Z,63.90
2019-05-19T09:14:36.470Z,64.37
2019-05-19T09:17:05.572Z,62.80
2019-05-19T09:19:34.337Z,59.03
2019-05-19T09:22:03.235Z,58.28
2019-05-19T09:24:32.097Z,60.17
2019-05-19T09:27:00.938Z,59.33
2019-05-19T09:29:29.710Z,57.23
2019-05-19T09:31:58.603Z,57.78
2019-05-19T09:34:27.407Z,58.05
2019-05-19T09:36:56.248Z,60.15
2019-05-19T09:39:25.026Z,61.65
2019-05-19T09:41:53.829Z,58.40
2019-05-19T09:44:22.706Z,56.70
2019-05-19T09:46:51.637Z,53.05
2019-05-19T09:49:33.205Z,53.35
2019-05-19T09:52:02.964Z,54.03
2019-05-19T09:54:44.055Z,48.25
2019-05-19T09:57:02.608Z,51.63
2019-05-19T09:59:31.410Z,51.58
2019-05-19T10:02:00.175Z,50.20
2019-05-19T10:04:29.065Z,50.38
2019-05-19T10:06:57.959Z,51.50
2019-05-19T10:09:46.034Z,52.05
2019-05-19T10:12:14.863Z,50.03
2019-05-19T10:14:43.678Z,47.00
2019-05-19T10:17:12.483Z,53.08
2019-05-19T10:19:41.249Z,48.48
2019-05-19T10:22:10.015Z,50.40
2019-05-19T10:24:38.887Z,52.27
2019-05-19T10:27:07.750Z,53.58
2019-05-19T10:29:36.712Z,53.55
2019-05-19T10:32:05.466Z,51.73
2019-05-19T10:34:34.252Z,56.25
2019-05-19T10:37:03.144Z,54.88
2019-05-19T10:39:31.996Z,52.85
2019-05-19T10:42:00.956Z,50.17
2019-05-19T10:44:29.715Z,50.35
2019-05-19T10:46:58.619Z,48.40
2019-05-19T10:49:27.429Z,50.85
2019-05-19T10:51:56.220Z,51.20
2019-05-19T10:54:25.178Z,49.63
2019-05-19T10:56:53.991Z,51.50
2019-05-19T10:59:22.803Z,53.08
2019-05-19T11:01:51.591Z,54.27
2019-05-19T11:04:20.412Z,50.45
2019-05-19T11:06:49.189Z,50.78
2019-05-19T11:09:18.057Z,50.83
2019-05-19T11:11:46.936Z,53.40
2019-05-19T11:14:15.740Z,50.33
2019-05-19T11:16:44.635Z,51.10
2019-05-19T11:19:13.416Z,51.70
2019-05-19T11:21:42.287Z,52.35
2019-05-19T11:24:11.099Z,52.00
2019-05-19T11:26:41.748Z,50.20
2019-05-19T11:29:10.812Z,48.75
2019-05-19T11:31:43.387Z,47.27
2019-05-19T11:34:12.326Z,47.53
2019-05-19T11:36:41.424Z,46.65
2019-05-19T11:39:10.434Z,44.63
2019-05-19T11:41:40.766Z,44.93
2019-05-19T11:44:09.653Z,42.75
2019-05-19T11:46:41.446Z,44.98
2019-05-19T11:49:24.462Z,48.63
2019-05-19T11:51:53.538Z,48.83
2019-05-19T11:54:27.383Z,48.45
2019-05-19T11:57:06.982Z,48.28
2019-05-19T11:59:37.413Z,51.80
2019-05-19T12:02:10.589Z,55.65
2019-05-19T12:04:39.397Z,56.33
2019-05-19T12:07:09.334Z,52.75
2019-05-19T12:09:38.828Z,50.00
2019-05-19T12:12:07.623Z,47.23
2019-05-19T12:14:36.597Z,49.83
2019-05-19T12:17:07.640Z,48.35
2019-05-19T12:19:37.634Z,48.70
2019-05-19T12:22:06.659Z,46.58
2019-05-19T12:24:37.806Z,48.05
2019-05-19T12:27:06.801Z,45.75
2019-05-19T12:29:35.780Z,41.13
2019-05-19T12:32:06.481Z,41.18
2019-05-19T12:34:35.417Z,40.63
2019-05-19T12:37:07.153Z,39.75
2019-05-19T12:39:36.282Z,35.00
2019-05-19T12:42:05.135Z,31.80
2019-05-19T12:44:34.059Z,29.87
2019-05-19T12:47:05.610Z,32.65
2019-05-19T12:49:36.532Z,31.30
2019-05-19T12:52:07.877Z,33.00
2019-05-19T12:54:39.445Z,31.50
2019-05-19T12:57:08.345Z,31.10
2019-05-19T12:59:37.249Z,31.30
2019-05-19T13:02:06.423Z,29.85
2019-05-19T13:04:35.196Z,30.55
2019-05-19T13:07:06.788Z,29.45
2019-05-19T13:09:35.790Z,31.65
2019-05-19T13:12:04.616Z,29.35
2019-05-19T13:14:33.618Z,30.55
2019-05-19T13:17:05.500Z,30.08
2019-05-19T13:19:34.052Z,29.52
2019-05-19T13:22:03.016Z,31.97
2019-05-19T13:24:34.438Z,32.42
2019-05-19T13:27:03.456Z,30.57
2019-05-19T13:29:35.418Z,32.45
2019-05-19T13:32:06.149Z,32.10
2019-05-19T13:34:34.930Z,34.20
2019-05-19T13:37:03.873Z,30.90
2019-05-19T13:39:32.776Z,30.50
2019-05-19T13:42:02.959Z,31.02
2019-05-19T13:44:32.423Z,32.85
2019-05-19T13:47:01.479Z,32.15
2019-05-19T13:49:30.643Z,32.53
2019-05-19T13:51:59.371Z,33.08
2019-05-19T13:54:29.880Z,37.30
2019-05-19T13:57:11.369Z,35.85
2019-05-19T13:59:29.298Z,36.28
2019-05-19T14:02:00.234Z,34.78
2019-05-19T14:04:29.007Z,32.33
2019-05-19T14:06:58.036Z,32.80
2019-05-19T14:09:28.661Z,33.18
2019-05-19T14:11:57.569Z,31.82
2019-05-19T14:14:28.085Z,30.68
2019-05-19T14:16:58.997Z,33.18
2019-05-19T14:19:30.163Z,34.30
2019-05-19T14:21:59.033Z,31.87
2019-05-19T14:24:28.044Z,33.95
2019-05-19T14:27:01.414Z,35.80
2019-05-19T14:33:13.172Z,38.58
2019-05-19T14:35:45.020Z,38.88
2019-05-19T14:38:14.187Z,36.68
2019-05-19T14:40:44.342Z,35.88
2019-05-19T14:43:14.079Z,38.10
2019-05-19T14:45:43.182Z,35.92
2019-05-19T14:48:14.171Z,37.25
2019-05-19T14:50:42.738Z,37.42
2019-05-19T14:53:14.353Z,35.15
2019-05-19T14:55:43.544Z,37.75
2019-05-19T14:58:13.057Z,35.52
2019-05-19T15:00:47.102Z,35.55
2019-05-19T15:03:18.519Z,35.52
2019-05-19T15:05:47.357Z,35.90
2019-05-19T15:08:16.204Z,35.98
2019-05-19T15:10:47.638Z,35.78
2019-05-19T15:13:18.159Z,35.38
2019-05-19T15:15:48.487Z,34.53
2019-05-19T15:18:17.539Z,36.83
2019-05-19T15:20:46.481Z,35.13
2019-05-19T15:23:17.642Z,36.53
2019-05-19T15:25:48.071Z,35.03
2019-05-19T15:28:18.092Z,34.13
2019-05-19T15:30:47.060Z,36.63
2019-05-19T15:33:16.158Z,35.17
2019-05-19T15:35:45.918Z,35.95
2019-05-19T15:38:16.407Z,36.00
2019-05-19T15:40:48.405Z,37.75
2019-05-19T15:43:17.263Z,36.70
2019-05-19T15:45:46.482Z,37.58
2019-05-19T15:48:15.318Z,35.75
2019-05-19T15:50:46.400Z,35.60
2019-05-19T15:53:15.218Z,36.68
2019-05-19T15:55:44.213Z,35.63
2019-05-19T15:58:16.988Z,36.17
2019-05-19T16:03:15.496Z,33.67
2019-05-19T16:05:47.555Z,33.63
2019-05-19T16:08:16.598Z,34.30
2019-05-19T16:10:46.023Z,33.50
2019-05-19T16:13:15.259Z,34.30
2019-05-19T16:15:44.180Z,33.28
2019-05-19T16:18:13.259Z,34.48
2019-05-19T16:20:43.558Z,34.67
2019-05-19T16:23:13.756Z,35.92
2019-05-19T16:25:42.864Z,35.73
2019-05-19T16:28:11.689Z,36.40
2019-05-19T16:30:42.977Z,34.95
2019-05-19T16:33:14.585Z,36.73
2019-05-19T16:35:46.252Z,37.73
2019-05-19T16:38:17.035Z,38.13
2019-05-19T16:40:47.570Z,37.78
2019-05-19T16:43:16.400Z,39.60
2019-05-19T16:45:46.197Z,39.03
2019-05-19T16:48:15.564Z,39.35
2019-05-19T16:50:44.765Z,40.50
2019-05-19T16:53:13.806Z,40.75
2019-05-19T16:55:42.716Z,41.40
2019-05-19T16:58:21.215Z,41.55
2019-05-19T17:00:44.348Z,38.08
2019-05-19T17:03:13.239Z,40.35
2019-05-19T17:05:44.830Z,41.42
2019-05-19T17:08:13.697Z,40.52
2019-05-19T17:10:44.153Z,41.50
2019-05-19T17:13:13.128Z,43.17
2019-05-19T17:15:42.139Z,42.50
2019-05-19T17:18:11.146Z,41.28
2019-05-19T17:20:43.994Z,43.35
2019-05-19T17:23:13.018Z,42.20
2019-05-19T17:25:41.865Z,45.12
2019-05-19T17:28:13.619Z,42.60
2019-05-19T17:30:44.517Z,45.28
2019-05-19T17:33:13.183Z,46.45
2019-05-19T17:35:44.047Z,46.70
2019-05-19T17:38:12.792Z,45.30
2019-05-19T17:40:43.255Z,44.00
2019-05-19T17:43:15.171Z,45.92
2019-05-19T17:45:44.096Z,47.33
2019-05-19T17:48:25.704Z,48.40
2019-05-19T17:50:45.788Z,45.80
2019-05-19T17:53:14.988Z,51.02
2019-05-19T17:55:45.211Z,49.40
2019-05-19T17:58:15.499Z,47.93
2019-05-19T18:00:44.466Z,48.05
2019-05-19T18:03:13.288Z,48.68
2019-05-19T18:05:42.129Z,48.55
2019-05-19T18:08:10.884Z,47.23
2019-05-19T18:10:39.701Z,48.98
2019-05-19T18:13:08.481Z,49.27
2019-05-19T18:15:37.762Z,45.73
2019-05-19T18:18:06.601Z,45.73
2019-05-19T18:20:35.391Z,50.23
2019-05-19T18:23:04.224Z,49.67
2019-05-19T18:25:33.126Z,50.80
2019-05-19T18:28:01.997Z,53.98
2019-05-19T18:30:30.773Z,52.25
2019-05-19T18:32:59.669Z,55.28
2019-05-19T18:35:28.509Z,53.55
2019-05-19T18:37:57.420Z,53.42
2019-05-19T18:40:26.250Z,55.80
2019-05-19T18:42:55.079Z,55.92
2019-05-19T18:45:23.977Z,55.17
2019-05-19T18:47:52.731Z,56.20
2019-05-19T18:50:21.617Z,54.50
2019-05-19T18:52:50.383Z,56.42
2019-05-19T18:55:19.236Z,54.00
2019-05-19T18:57:48.111Z,56.00
2019-05-19T19:00:19.891Z,52.73
2019-05-19T19:02:48.691Z,52.05
2019-05-19T19:05:17.474Z,57.10
2019-05-19T19:07:50.829Z,55.40
2019-05-19T19:12:48.188Z,55.80
2019-05-19T19:15:17.100Z,55.95
2019-05-19T19:17:45.924Z,58.65
2019-05-19T19:20:15.306Z,57.88
2019-05-19T19:22:44.069Z,57.00
2019-05-19T19:25:14.688Z,57.38
2019-05-19T19:27:43.391Z,56.00
2019-05-19T19:30:13.632Z,60.88
2019-05-19T19:32:42.459Z,58.40
2019-05-19T19:35:11.340Z,59.00
2019-05-19T19:37:40.156Z,56.77
2019-05-19T19:40:09.160Z,57.95
2019-05-19T19:42:38.034Z,57.75
2019-05-19T19:45:07.318Z,56.23
2019-05-19T19:47:36.234Z,55.03
2019-05-19T19:50:06.542Z,53.95
2019-05-19T19:52:35.403Z,56.75
2019-05-19T19:55:05.173Z,54.90
2019-05-19T19:57:33.934Z,54.83
2019-05-19T20:00:16.933Z,56.53
2019-05-19T20:02:33.236Z,55.52
2019-05-19T20:05:03.902Z,55.00
2019-05-19T20:07:32.668Z,52.50
2019-05-19T20:10:01.488Z,55.40
2019-05-19T20:12:30.361Z,57.08
2019-05-19T20:14:59.186Z,55.25
2019-05-19T20:17:27.945Z,54.13
2019-05-19T20:19:56.751Z,54.63
2019-05-19T20:22:25.525Z,48.87
2019-05-19T20:24:54.488Z,50.65
2019-05-19T20:27:23.333Z,42.45
2019-05-19T20:29:52.127Z,45.10
2019-05-19T20:32:21.005Z,46.33
2019-05-19T20:34:49.804Z,46.45
2019-05-19T20:37:18.607Z,44.08
2019-05-19T20:39:47.399Z,49.88
2019-05-19T20:42:16.287Z,50.17
2019-05-19T20:44:45.168Z,52.25
2019-05-19T20:47:14.030Z,54.40
2019-05-19T20:49:42.898Z,53.25
2019-05-19T20:52:11.745Z,52.55
2019-05-19T20:54:40.553Z,50.20
2019-05-19T20:57:09.316Z,49.15
2019-05-19T20:59:38.214Z,49.85
2019-05-19T21:02:07.071Z,49.80
2019-05-19T21:04:35.973Z,49.05
2019-05-19T21:07:07.681Z,49.63
2019-05-19T21:09:35.323Z,49.53
2019-05-19T21:12:04.256Z,49.42
2019-05-19T21:14:33.169Z,47.98
2019-05-19T21:17:01.973Z,48.63
2019-05-19T21:19:30.763Z,49.20
2019-05-19T21:21:59.653Z,48.78
2019-05-19T21:24:28.480Z,49.93
2019-05-19T21:26:57.262Z,49.80
2019-05-19T21:29:27.013Z,49.70
2019-05-19T21:31:55.796Z,48.15
2019-05-19T21:34:24.611Z,49.58
2019-05-19T21:36:53.440Z,49.18
2019-05-19T21:39:22.304Z,50.28
2019-05-19T21:41:51.063Z,47.43
2019-05-19T21:44:19.841Z,46.92
2019-05-19T21:46:48.645Z,47.10
2019-05-19T21:49:17.418Z,44.05
2019-05-19T21:51:46.320Z,44.23
2019-05-19T21:54:15.174Z,45.98
2019-05-19T21:56:43.995Z,42.73
2019-05-19T21:59:12.795Z,44.35
2019-05-19T22:01:41.638Z,43.70
2019-05-19T22:04:10.568Z,43.78
2019-05-19T22:06:40.967Z,44.58
2019-05-19T22:09:09.813Z,43.25
2019-05-19T22:11:38.712Z,44.40
2019-05-19T22:14:07.505Z,40.73
2019-05-19T22:16:36.341Z,43.68
2019-05-19T22:19:05.680Z,45.50
2019-05-19T22:21:34.508Z,45.05
2019-05-19T22:24:03.329Z,43.70
2019-05-19T22:26:32.093Z,44.33
2019-05-19T22:29:00.871Z,43.70
2019-05-19T22:31:36.541Z,42.33
2019-05-19T22:34:00.107Z,41.50
2019-05-19T22:36:29.045Z,45.05
2019-05-19T22:38:57.816Z,43.33
2019-05-19T22:41:26.588Z,43.33
2019-05-19T22:43:55.396Z,42.98
2019-05-19T22:46:24.231Z,44.75
2019-05-19T22:48:53.077Z,41.35
2019-05-19T22:51:22.833Z,40.95
2019-05-19T22:53:51.897Z,40.80
2019-05-19T22:56:20.660Z,41.55
2019-05-19T22:58:49.468Z,37.25
2019-05-19T23:01:18.336Z,38.80
2019-05-19T23:03:47.106Z,37.88
2019-05-19T23:06:15.972Z,39.58
2019-05-19T23:08:44.740Z,39.42
2019-05-19T23:11:13.632Z,37.20
2019-05-19T23:13:42.461Z,38.70
2019-05-19T23:16:11.262Z,37.93
2019-05-19T23:18:40.108Z,37.15
2019-05-19T23:21:09.023Z,37.10
2019-05-19T23:23:37.944Z,37.40
2019-05-19T23:26:06.709Z,37.15
2019-05-19T23:28:35.522Z,37.13
2019-05-19T23:31:04.302Z,36.48
2019-05-19T23:33:33.088Z,37.78
2019-05-19T23:36:01.886Z,34.95
2019-05-19T23:38:30.665Z,37.08
2019-05-19T23:40:59.504Z,36.38
2019-05-19T23:43:28.306Z,33.38
2019-05-19T23:45:57.431Z,35.45
2019-05-19T23:48:26.340Z,35.25
2019-05-19T23:50:55.171Z,35.08
2019-05-19T23:53:23.998Z,33.40
2019-05-19T23:55:52.827Z,33.18
2019-05-19T23:58:21.606Z,32.40
